Time;durP1;ratioP1;P1;durP2;ratioP2;P2;SDS_P1;SDS_P2;PMS_P1;PMS_P2;Temp;Humidity;BMP_temperature;BMP_pressure;BME280_temperature;BME280_humidity;BME280_pressure;Samples;Min_cycle;Max_cycle;Signal;HPM_P1;HPM_P2
2023/02/02 00:01:11;;;;;;;1.65;0.35;;;;;;;10.82;100.00;100604.06;7395526;19;20015;-60
2023/02/02 00:03:38;;;;;;;1.25;0.88;;;;;;;11.12;100.00;100606.81;7395662;19;20007;-60
2023/02/02 00:06:05;;;;;;;2.85;0.68;;;;;;;11.24;100.00;100619.06;7393615;19;20018;-60
2023/02/02 00:08:31;;;;;;;2.47;0.28;;;;;;;12.47;100.00;100605.25;7394052;19;20024;-60
2023/02/02 00:10:57;;;;;;;20.08;0.80;;;;;;;12.42;100.00;100599.50;7396393;19;20018;-60
2023/02/02 00:13:23;;;;;;;7.80;0.93;;;;;;;17.16;100.00;100599.09;7396222;19;20011;-60
2023/02/02 00:15:52;;;;;;;0.40;0.40;;;;;;;13.51;100.00;100597.72;7394040;19;20033;-60
2023/02/02 00:18:18;;;;;;;0.75;0.52;;;;;;;13.65;100.00;100599.03;7394748;19;20014;-60
2023/02/02 00:20:48;;;;;;;0.50;0.35;;;;;;;13.00;100.00;100611.06;7395684;19;20011;-62
2023/02/02 00:23:16;;;;;;;0.20;0.10;;;;;;;13.05;100.00;100604.88;7393287;19;20448;-62
2023/02/02 00:25:42;;;;;;;1.27;1.17;;;;;;;17.50;93.83;100594.41;7393065;19;20010;-62
2023/02/02 00:28:08;;;;;;;0.45;0.20;;;;;;;13.00;100.00;100611.06;7393668;19;20019;-63
2023/02/02 00:30:34;;;;;;;0.75;0.10;;;;;;;11.99;100.00;100612.63;7395848;19;20011;-62
2023/02/02 00:33:00;;;;;;;2.67;0.30;;;;;;;11.67;100.00;100618.84;7391066;19;20015;-62
2023/02/02 00:35:27;;;;;;;1.27;0.60;;;;;;;11.60;100.00;100619.13;7393740;19;20511;-62
2023/02/02 00:37:53;;;;;;;0.70;0.43;;;;;;;11.52;100.00;100615.06;7394542;19;20015;-62
2023/02/02 00:40:19;;;;;;;0.30;0.30;;;;;;;11.44;100.00;100609.03;7390709;19;20010;-62
2023/02/02 00:42:49;;;;;;;8.73;0.50;;;;;;;11.63;100.00;100611.84;7390287;19;20031;-62
2023/02/02 00:45:15;;;;;;;1.42;0.45;;;;;;;11.31;100.00;100613.19;7388545;19;20039;-62
2023/02/02 00:47:46;;;;;;;6.35;0.88;;;;;;;11.30;100.00;100606.06;7390132;19;20346;-62
2023/02/02 00:50:16;;;;;;;0.40;0.40;;;;;;;11.56;100.00;100601.75;7392709;19;20006;-63
2023/02/02 00:52:42;;;;;;;6.50;0.20;;;;;;;12.65;100.00;100607.19;7394281;19;20010;-62
2023/02/02 00:55:10;;;;;;;0.47;0.20;;;;;;;13.10;100.00;100611.84;7389505;19;20010;-62
2023/02/02 00:57:37;;;;;;;0.25;0.25;;;;;;;13.22;100.00;100605.22;7388520;19;20086;-60
2023/02/02 01:00:06;;;;;;;0.50;0.40;;;;;;;12.53;100.00;100613.75;7392405;19;20035;-60
2023/02/02 01:02:34;;;;;;;0.60;0.47;;;;;;;11.97;100.00;100608.75;7390068;19;20027;-60
2023/02/02 01:05:01;;;;;;;0.20;0.20;;;;;;;11.91;100.00;100614.16;7388518;19;20082;-60
2023/02/02 01:07:27;;;;;;;12.73;0.57;;;;;;;11.86;100.00;100612.03;7387900;19;20467;-60
2023/02/02 01:09:55;;;;;;;0.20;0.20;;;;;;;11.37;100.00;100611.31;7392181;19;20026;-60
2023/02/02 01:12:21;;;;;;;9.88;1.42;;;;;;;11.62;100.00;100611.06;7392904;19;20027;-60
2023/02/02 01:14:48;;;;;;;1.90;0.63;;;;;;;11.96;100.00;100613.56;7394321;19;20014;-60
2023/02/02 01:17:14;;;;;;;2.15;0.50;;;;;;;12.22;100.00;100604.81;7394020;19;20458;-60
2023/02/02 01:19:40;;;;;;;3.20;1.13;;;;;;;11.39;100.00;100603.31;7391336;19;20035;-60
2023/02/02 01:22:07;;;;;;;1.85;0.55;;;;;;;11.60;100.00;100602.38;7387654;19;20029;-60
2023/02/02 01:24:33;;;;;;;0.28;0.13;;;;;;;11.52;100.00;100601.13;7387761;19;20360;-60
2023/02/02 01:27:00;;;;;;;1.80;0.82;;;;;;;12.57;100.00;100600.38;7388139;19;20052;-60
2023/02/02 01:29:26;;;;;;;0.30;0.25;;;;;;;13.42;100.00;100595.00;7391376;19;20010;-60
2023/02/02 01:31:52;;;;;;;2.10;1.02;;;;;;;13.01;100.00;100573.50;7390037;19;20030;-60
2023/02/02 01:34:18;;;;;;;0.10;0.10;;;;;;;12.18;100.00;100575.06;7389595;19;20058;-59
2023/02/02 01:36:45;;;;;;;0.15;0.13;;;;;;;12.24;100.00;100575.19;7389532;19;20018;-59
2023/02/02 01:39:11;;;;;;;0.55;0.35;;;;;;;12.62;100.00;100569.03;7390423;19;20010;-59
2023/02/02 01:41:39;;;;;;;0.17;0.08;;;;;;;12.77;100.00;100561.50;7389141;19;20066;-60
2023/02/02 01:44:45;;;;;;;0.85;0.47;;;;;;;11.96;100.00;100563.31;7389211;19;20339;-60
2023/02/02 01:47:12;;;;;;;0.10;0.05;;;;;;;12.13;100.00;100567.31;7387713;19;20018;-60
2023/02/02 01:49:40;;;;;;;0.10;0.10;;;;;;;12.01;100.00;100565.47;7393059;19;20018;-60
2023/02/02 01:52:09;;;;;;;0.17;0.17;;;;;;;11.83;100.00;100562.72;7386551;19;20011;-60
2023/02/02 01:54:43;;;;;;;0.20;0.20;;;;;;;12.19;100.00;100565.41;7387437;19;20014;-60
2023/02/02 01:57:37;;;;;;;1.55;0.30;;;;;;;17.72;100.00;100549.44;7388964;19;20070;-60
2023/02/02 02:00:07;;;;;;;0.22;0.10;;;;;;;11.79;100.00;100570.47;7389280;19;20041;-60
2023/02/02 02:02:44;;;;;;;0.30;0.30;;;;;;;11.41;100.00;100568.09;7391639;19;20634;-60
2023/02/02 02:05:14;;;;;;;0.32;0.32;;;;;;;11.38;100.00;100569.06;7385487;19;20340;-60
2023/02/02 02:07:43;;;;;;;0.22;0.22;;;;;;;12.11;100.00;100569.78;7386524;19;20084;-60
2023/02/02 02:10:09;;;;;;;1.95;0.55;;;;;;;11.55;100.00;100568.72;7387852;19;20468;-60
2023/02/02 02:12:36;;;;;;;0.85;0.40;;;;;;;11.28;100.00;100569.50;7386239;19;20007;-60
2023/02/02 02:17:57;;;;;;;0.47;0.32;;;;;;;12.40;100.00;100574.84;7385471;19;20344;-60
2023/02/02 02:26:40;;;;;;;3.00;0.60;;;;;;;12.64;100.00;100560.94;7388257;19;20010;-60
2023/02/02 02:29:34;;;;;;;5.72;0.50;;;;;;;13.44;100.00;100561.72;7386343;19;20400;-60
2023/02/02 02:32:28;;;;;;;0.25;0.25;;;;;;;11.63;100.00;100567.97;7388628;19;20439;-60
2023/02/02 02:35:20;;;;;;;1.00;0.50;;;;;;;12.29;100.00;100563.38;7391441;19;20015;-60
2023/02/02 02:38:12;;;;;;;5.07;0.95;;;;;;;13.29;100.00;100562.91;7392709;19;20478;-60
2023/02/02 02:40:46;;;;;;;3.40;0.82;;;;;;;12.64;100.00;100566.53;7397918;19;20010;-60
2023/02/02 02:43:20;;;;;;;0.17;0.17;;;;;;;12.37;100.00;100580.56;7391871;19;20358;-59
2023/02/02 02:45:47;;;;;;;1.08;0.25;;;;;;;13.11;100.00;100575.00;7392821;19;20015;-59
2023/02/02 02:48:13;;;;;;;20.80;2.45;;;;;;;11.85;100.00;100582.56;7392708;19;20015;-60
2023/02/02 02:50:40;;;;;;;3.60;1.38;;;;;;;10.84;100.00;100577.31;7397482;19;20345;-60
2023/02/02 02:53:15;;;;;;;0.88;0.73;;;;;;;11.33;100.00;100577.25;7396907;19;20010;-59
2023/02/02 02:56:05;;;;;;;7.90;0.82;;;;;;;11.33;100.00;100575.22;7392146;19;20089;-60
2023/02/02 02:58:52;;;;;;;7.78;2.60;;;;;;;11.54;100.00;100570.00;7392562;19;20014;-60
2023/02/02 03:01:29;;;;;;;1.23;0.43;;;;;;;11.97;100.00;100570.47;7393227;19;20482;-60
2023/02/02 03:04:01;;;;;;;0.30;0.30;;;;;;;12.37;100.00;100563.81;7393532;19;20074;-60
2023/02/02 03:06:40;;;;;;;1.00;0.55;;;;;;;11.49;100.00;100563.00;7391025;19;20018;-60
2023/02/02 03:09:11;;;;;;;0.68;0.28;;;;;;;11.49;100.00;100568.59;7393758;19;20027;-60
2023/02/02 03:11:39;;;;;;;0.52;0.52;;;;;;;11.54;100.00;100556.81;7392491;19;20367;-60
2023/02/02 03:14:08;;;;;;;0.55;0.13;;;;;;;11.38;100.00;100557.13;7393567;19;20054;-60
2023/02/02 03:16:36;;;;;;;0.20;0.20;;;;;;;11.19;100.00;100552.75;7397007;19;20026;-60
2023/02/02 03:19:04;;;;;;;10.35;0.90;;;;;;;11.30;100.00;100562.22;7391932;19;20094;-60
2023/02/02 03:21:32;;;;;;;0.10;0.10;;;;;;;11.78;100.00;100563.31;7391758;19;20479;-60
2023/02/02 03:23:58;;;;;;;1.58;0.82;;;;;;;12.13;100.00;100560.94;7393415;19;20019;-59
2023/02/02 03:26:25;;;;;;;1.65;0.68;;;;;;;11.34;100.00;100562.06;7394407;19;20010;-60
2023/02/02 03:28:54;;;;;;;1.45;0.63;;;;;;;11.02;100.00;100562.66;7390803;19;20006;-60
2023/02/02 03:31:20;;;;;;;5.25;0.98;;;;;;;11.77;100.00;100561.78;7391763;19;20007;-60
2023/02/02 03:33:46;;;;;;;0.22;0.20;;;;;;;12.92;100.00;100559.56;7390314;19;20017;-60
2023/02/02 03:36:12;;;;;;;1.70;0.88;;;;;;;11.66;100.00;100567.03;7392064;19;20011;-59
2023/02/02 03:38:38;;;;;;;0.10;0.00;;;;;;;11.57;100.00;100566.25;7390801;19;20011;-60
2023/02/02 03:41:05;;;;;;;0.20;0.10;;;;;;;11.17;100.00;100564.38;7395545;19;20011;-59
2023/02/02 03:43:31;;;;;;;3.80;0.80;;;;;;;12.39;100.00;100561.34;7391792;19;20112;-60
2023/02/02 03:45:59;;;;;;;2.10;0.52;;;;;;;13.22;100.00;100549.28;7391880;19;20010;-59
2023/02/02 03:48:26;;;;;;;2.85;0.55;;;;;;;12.47;100.00;100562.56;7396377;19;20015;-60
2023/02/02 03:50:52;;;;;;;0.40;0.32;;;;;;;12.33;100.00;100563.22;7398843;19;20626;-60
2023/02/02 03:53:19;;;;;;;0.80;0.40;;;;;;;11.64;100.00;100563.94;7395380;19;20062;-59
2023/02/02 03:55:45;;;;;;;0.43;0.43;;;;;;;12.59;100.00;100558.78;7394190;19;20007;-60
2023/02/02 03:58:11;;;;;;;0.90;0.32;;;;;;;11.42;100.00;100561.31;7392896;19;20014;-59
2023/02/02 04:00:37;;;;;;;0.30;0.30;;;;;;;11.33;100.00;100560.50;7394791;19;20015;-60
2023/02/02 04:03:03;;;;;;;1.08;1.00;;;;;;;11.74;100.00;100548.75;7396298;19;20030;-60
2023/02/02 04:05:29;;;;;;;2.15;1.35;;;;;;;12.19;100.00;100543.09;7391275;19;20481;-60
2023/02/02 04:07:56;;;;;;;15.48;0.30;;;;;;;12.25;100.00;100556.41;7390702;19;20035;-60
2023/02/02 04:10:22;;;;;;;0.20;0.20;;;;;;;12.13;100.00;100547.75;7395573;19;20014;-59
2023/02/02 04:12:48;;;;;;;1.38;0.40;;;;;;;11.55;100.00;100555.56;7393878;19;20070;-60
2023/02/02 04:15:14;;;;;;;0.10;0.10;;;;;;;12.21;100.00;100553.81;7394507;19;20038;-59
2023/02/02 04:17:40;;;;;;;0.20;0.20;;;;;;;11.72;100.00;100554.03;7389884;19;20558;-60
2023/02/02 04:20:08;;;;;;;0.10;0.10;;;;;;;12.30;100.00;100547.41;7391775;19;20487;-60
2023/02/02 04:22:34;;;;;;;0.40;0.32;;;;;;;12.03;100.00;100557.41;7390268;19;20011;-60
2023/02/02 04:25:00;;;;;;;0.10;0.10;;;;;;;12.28;100.00;100558.28;7390526;19;20011;-60
2023/02/02 04:27:26;;;;;;;0.40;0.40;;;;;;;12.76;100.00;100551.56;7389584;19;20007;-60
2023/02/02 04:29:52;;;;;;;0.10;0.10;;;;;;;14.27;100.00;100549.25;7394108;19;20038;-60
2023/02/02 04:32:18;;;;;;;0.10;0.10;;;;;;;14.50;100.00;100544.81;7393985;19;20021;-60
2023/02/02 04:34:45;;;;;;;0.57;0.55;;;;;;;14.30;100.00;100542.72;7395541;19;20674;-60
2023/02/02 04:37:11;;;;;;;0.10;0.10;;;;;;;14.11;100.00;100541.34;7391818;19;20117;-60
2023/02/02 04:39:37;;;;;;;0.38;0.30;;;;;;;13.95;100.00;100543.84;7391089;19;20045;-60
2023/02/02 04:42:03;;;;;;;0.10;0.10;;;;;;;12.95;100.00;100544.59;7391363;19;20052;-60
2023/02/02 04:44:30;;;;;;;3.83;0.40;;;;;;;12.62;100.00;100541.06;7390559;19;20066;-60
2023/02/02 04:46:56;;;;;;;0.35;0.20;;;;;;;12.50;100.00;100539.25;7391235;19;20079;-60
2023/02/02 04:49:22;;;;;;;0.47;0.25;;;;;;;13.14;100.00;100537.69;7393826;19;20018;-60
2023/02/02 04:51:49;;;;;;;0.32;0.10;;;;;;;12.69;100.00;100541.50;7390066;19;20066;-60
2023/02/02 04:54:15;;;;;;;0.28;0.28;;;;;;;13.14;100.00;100537.69;7389751;19;20018;-60
2023/02/02 04:56:41;;;;;;;0.22;0.10;;;;;;;12.95;100.00;100539.00;7387648;19;20022;-60
2023/02/02 04:59:08;;;;;;;0.10;0.10;;;;;;;12.73;100.00;100535.75;7389440;19;20056;-60
2023/02/02 05:01:34;;;;;;;0.57;0.20;;;;;;;14.07;100.00;100529.56;7393062;19;20014;-60
2023/02/02 05:04:00;;;;;;;0.10;0.10;;;;;;;12.97;100.00;100532.97;7390154;19;20038;-60
2023/02/02 05:06:26;;;;;;;0.90;0.20;;;;;;;14.54;100.00;100527.78;7389076;19;20048;-60
2023/02/02 05:08:52;;;;;;;3.17;0.20;;;;;;;13.87;100.00;100537.09;7390425;19;20021;-60
2023/02/02 05:11:21;;;;;;;0.73;0.40;;;;;;;13.87;100.00;100532.25;7390535;19;20007;-60
2023/02/02 05:13:50;;;;;;;0.20;0.20;;;;;;;13.82;100.00;100530.13;7390090;19;20069;-60
2023/02/02 05:16:17;;;;;;;0.10;0.10;;;;;;;14.67;100.00;100526.22;7388570;19;20018;-60
2023/02/02 05:18:51;;;;;;;0.10;0.10;;;;;;;13.84;100.00;100532.47;7390121;19;20937;-60
2023/02/02 05:21:18;;;;;;;4.90;0.63;;;;;;;12.82;100.00;100544.09;7390125;19;20080;-60
2023/02/02 05:23:44;;;;;;;0.20;0.20;;;;;;;13.03;100.00;100542.25;7388026;19;20010;-60
2023/02/02 05:26:17;;;;;;;0.10;0.10;;;;;;;12.81;100.00;100542.53;7389176;19;20010;-60
2023/02/02 05:28:43;;;;;;;1.08;0.57;;;;;;;13.42;100.00;100541.84;7392561;19;20070;-60
2023/02/02 05:31:10;;;;;;;0.30;0.20;;;;;;;13.31;100.00;100536.03;7387177;19;20034;-60
2023/02/02 05:33:36;;;;;;;1.95;0.17;;;;;;;13.43;100.00;100560.16;7389137;19;20013;-60
2023/02/02 05:36:03;;;;;;;0.30;0.30;;;;;;;13.84;100.00;100538.06;7389090;19;20463;-60
2023/02/02 05:38:30;;;;;;;0.32;0.32;;;;;;;13.22;100.00;100538.09;7390874;19;20348;-60
2023/02/02 05:40:56;;;;;;;2.65;0.32;;;;;;;13.31;100.00;100541.63;7391263;19;20066;-60
2023/02/02 05:43:27;;;;;;;5.68;0.22;;;;;;;14.99;100.00;100541.97;7389152;19;20665;-60
2023/02/02 05:45:53;;;;;;;;;;;;;;;13.03;100.00;100543.03;7389547;19;20011;-60
2023/02/02 05:48:19;;;;;;;0.10;0.10;;;;;;;13.49;100.00;100537.91;7391699;19;19926;-59
2023/02/02 05:50:54;;;;;;;1.33;0.77;;;;;;;13.33;100.00;100539.13;7391501;19;20011;-59
2023/02/02 05:53:21;;;;;;;0.10;0.00;;;;;;;13.29;100.00;100538.53;7385554;19;20011;-60
2023/02/02 05:55:47;;;;;;;3.20;0.47;;;;;;;13.84;100.00;100543.66;7384667;19;20011;-60
2023/02/02 05:58:13;;;;;;;0.10;0.10;;;;;;;13.18;100.00;100543.88;7386387;19;20105;-60
2023/02/02 06:00:39;;;;;;;0.30;0.20;;;;;;;13.18;100.00;100537.50;7389230;19;20443;-60
2023/02/02 06:03:05;;;;;;;0.20;0.20;;;;;;;13.75;100.00;100536.13;7385373;19;20336;-60
2023/02/02 06:05:32;;;;;;;0.10;0.10;;;;;;;13.03;100.00;100529.03;7385479;19;20021;-60
2023/02/02 06:07:58;;;;;;;0.10;0.10;;;;;;;12.38;100.00;100534.66;7389385;19;20018;-59
2023/02/02 06:10:24;;;;;;;3.22;0.28;;;;;;;13.00;100.00;100532.00;7396829;19;20084;-60
2023/02/02 06:12:50;;;;;;;5.60;1.35;;;;;;;13.80;100.00;100532.63;7398464;19;20507;-60
2023/02/02 06:15:17;;;;;;;0.20;0.10;;;;;;;14.64;100.00;100538.41;7392595;19;20021;-60
2023/02/02 06:17:43;;;;;;;0.38;0.38;;;;;;;12.94;100.00;100543.06;7394000;19;20010;-60
2023/02/02 06:20:09;;;;;;;0.13;0.05;;;;;;;14.56;100.00;100542.88;7399105;19;20014;-60
2023/02/02 06:22:36;;;;;;;0.20;0.00;;;;;;;19.57;86.93;100539.03;7396110;19;20011;-60
2023/02/02 06:25:04;;;;;;;0.10;0.00;;;;;;;14.91;100.00;100549.25;7394686;19;20324;-60
2023/02/02 06:27:30;;;;;;;0.38;0.32;;;;;;;13.56;100.00;100555.09;7393990;19;20029;-60
2023/02/02 06:29:57;;;;;;;1.67;0.38;;;;;;;15.78;100.00;100550.13;7398104;19;20343;-60
2023/02/02 06:32:23;;;;;;;0.17;0.17;;;;;;;13.57;100.00;100553.84;7394749;19;20010;-59
2023/02/02 06:34:49;;;;;;;0.65;0.52;;;;;;;14.35;100.00;100549.66;7394508;19;20086;-60
2023/02/02 06:37:15;;;;;;;0.25;0.25;;;;;;;12.47;100.00;100548.59;7395063;19;20014;-60
2023/02/02 06:39:41;;;;;;;0.80;0.45;;;;;;;12.92;100.00;100554.75;7397809;19;20028;-60
2023/02/02 06:42:07;;;;;;;1.85;0.70;;;;;;;12.44;100.00;100546.72;7396703;19;20018;-60
2023/02/02 06:44:34;;;;;;;1.50;0.60;;;;;;;16.09;100.00;100544.53;7395807;19;20015;-60
2023/02/02 06:47:00;;;;;;;4.47;0.65;;;;;;;14.17;100.00;100547.03;7395134;19;20024;-60
2023/02/02 06:49:26;;;;;;;18.88;1.48;;;;;;;12.49;100.00;100554.47;7400486;19;20022;-59
2023/02/02 06:51:52;;;;;;;11.45;1.30;;;;;;;17.17;100.00;100549.19;7399894;19;20014;-60
2023/02/02 06:54:18;;;;;;;1.55;0.75;;;;;;;20.89;83.10;100538.53;7396599;19;20010;-60
2023/02/02 06:56:44;;;;;;;7.68;1.08;;;;;;;17.17;94.19;100558.38;7395473;19;20025;-60
2023/02/02 06:59:10;;;;;;;0.70;0.70;;;;;;;18.04;100.00;100552.84;7394535;19;20047;-59
2023/02/02 07:01:37;;;;;;;0.40;0.40;;;;;;;22.87;79.80;100559.00;7394730;19;20027;-60
2023/02/02 07:04:03;;;;;;;1.25;0.73;;;;;;;14.92;100.00;100569.69;7397546;19;20082;-60
2023/02/02 07:06:29;;;;;;;17.25;1.40;;;;;;;12.92;100.00;100577.09;7392285;19;20024;-60
2023/02/02 07:08:55;;;;;;;0.75;0.43;;;;;;;12.39;100.00;100590.03;7397840;19;20010;-59
2023/02/02 07:11:22;;;;;;;0.98;0.70;;;;;;;12.73;100.00;100588.84;7392204;19;20082;-60
2023/02/02 07:13:48;;;;;;;0.75;0.35;;;;;;;14.98;100.00;100579.72;7391718;19;20088;-60
2023/02/02 07:16:16;;;;;;;1.23;0.55;;;;;;;15.29;100.00;100586.75;7394061;19;20022;-60
2023/02/02 07:18:43;;;;;;;12.45;1.50;;;;;;;13.06;100.00;100594.47;7395359;19;20010;-60
2023/02/02 07:21:21;;;;;;;6.15;0.50;;;;;;;13.16;100.00;100588.34;7396170;19;20022;-60
2023/02/02 07:23:48;;;;;;;0.85;0.22;;;;;;;15.90;100.00;100582.66;7393726;19;20020;-60
2023/02/02 07:26:15;;;;;;;1.55;0.77;;;;;;;13.45;100.00;100588.44;7395151;19;20027;-60
2023/02/02 07:28:42;;;;;;;0.30;0.30;;;;;;;13.73;100.00;100586.19;7394122;19;20006;-60
2023/02/02 07:31:21;;;;;;;0.60;0.60;;;;;;;13.26;100.00;100587.03;7394647;19;20049;-60
2023/02/02 07:33:48;;;;;;;0.47;0.30;;;;;;;12.95;100.00;100580.94;7395377;19;20014;-60
2023/02/02 07:36:17;;;;;;;0.32;0.20;;;;;;;23.06;81.66;100573.88;7393254;19;20031;-60
2023/02/02 07:38:45;;;;;;;0.30;0.30;;;;;;;21.89;86.11;100577.84;7392034;19;20011;-61
2023/02/02 07:41:12;;;;;;;0.40;0.40;;;;;;;18.22;91.46;100579.75;7392936;19;20007;-62
2023/02/02 07:43:39;;;;;;;1.75;0.52;;;;;;;23.08;75.52;100579.78;7393062;19;20015;-60
2023/02/02 07:46:08;;;;;;;0.57;0.30;;;;;;;18.02;90.05;100601.25;7391330;19;20015;-60
2023/02/02 07:48:35;;;;;;;1.35;0.50;;;;;;;15.81;100.00;100605.28;7391612;19;20014;-60
2023/02/02 07:51:04;;;;;;;2.97;0.60;;;;;;;15.86;100.00;100601.78;7395723;19;20082;-59
2023/02/02 07:53:30;;;;;;;0.57;0.20;;;;;;;15.67;100.00;100600.53;7397432;19;20079;-60
2023/02/02 07:56:21;;;;;;;0.77;0.50;;;;;;;15.25;100.00;100608.63;7395862;19;20109;-60
2023/02/02 07:58:47;;;;;;;1.35;0.63;;;;;;;15.03;100.00;100601.44;7392945;19;20014;-60
2023/02/02 08:01:15;;;;;;;1.50;0.38;;;;;;;15.20;100.00;100602.44;7395061;19;20039;-60
2023/02/02 08:03:42;;;;;;;0.10;0.10;;;;;;;15.44;100.00;100598.72;7390697;19;20028;-60
2023/02/02 08:06:18;;;;;;;0.10;0.10;;;;;;;15.49;100.00;100601.59;7391506;19;20010;-60
2023/02/02 08:08:46;;;;;;;0.52;0.20;;;;;;;14.90;100.00;100606.59;7392082;19;20343;-60
2023/02/02 08:11:15;;;;;;;0.40;0.20;;;;;;;13.73;100.00;100610.63;7390345;19;20014;-60
2023/02/02 08:13:42;;;;;;;1.10;0.65;;;;;;;13.51;100.00;100611.72;7392458;19;20075;-60
2023/02/02 08:16:09;;;;;;;1.48;0.47;;;;;;;13.31;100.00;100608.75;7394547;19;20018;-60
2023/02/02 08:18:36;;;;;;;1.48;0.30;;;;;;;14.39;100.00;100606.28;7391848;19;20010;-60
2023/02/02 08:21:07;;;;;;;0.35;0.20;;;;;;;15.79;100.00;100607.81;7395797;19;20011;-60
2023/02/02 08:23:35;;;;;;;0.10;0.10;;;;;;;17.29;100.00;100607.09;7391899;19;20021;-60
2023/02/02 08:26:10;;;;;;;7.28;0.75;;;;;;;16.44;100.00;100606.97;7393871;19;20042;-60
2023/02/02 08:28:38;;;;;;;0.10;0.10;;;;;;;23.97;77.64;100588.00;7390281;19;20502;-60
2023/02/02 08:31:15;;;;;;;14.00;0.38;;;;;;;26.38;60.63;100587.50;7393624;19;20014;-60
2023/02/02 08:33:41;;;;;;;1.25;0.40;;;;;;;26.03;61.96;100601.25;7390142;19;20015;-60
2023/02/02 08:36:19;;;;;;;0.65;0.40;;;;;;;20.26;68.71;100598.28;7391905;19;20348;-60
2023/02/02 08:38:45;;;;;;;0.90;0.30;;;;;;;15.98;100.00;100614.69;7390562;19;20010;-60
2023/02/02 08:41:14;;;;;;;0.30;0.22;;;;;;;15.29;100.00;100609.22;7390284;19;20013;-60
2023/02/02 08:43:41;;;;;;;0.40;0.08;;;;;;;15.88;100.00;100613.28;7391102;19;20034;-60
2023/02/02 08:46:09;;;;;;;3.13;0.55;;;;;;;15.72;100.00;100614.63;7390161;19;20014;-60
2023/02/02 08:48:36;;;;;;;0.50;0.22;;;;;;;15.97;100.00;100613.13;7388927;19;20502;-60
2023/02/02 08:51:04;;;;;;;4.82;0.80;;;;;;;16.14;100.00;100622.50;7395084;19;20018;-60
2023/02/02 08:53:31;;;;;;;2.10;0.22;;;;;;;16.30;100.00;100616.28;7390228;19;20027;-60
2023/02/02 08:56:06;;;;;;;0.50;0.28;;;;;;;16.28;100.00;100615.25;7389574;19;20018;-60
2023/02/02 08:58:33;;;;;;;4.57;0.38;;;;;;;17.06;100.00;100620.28;7388425;19;20757;-60
2023/02/02 09:01:08;;;;;;;0.40;0.40;;;;;;;16.82;100.00;100624.69;7394214;19;20017;-60
2023/02/02 09:03:34;;;;;;;0.38;0.38;;;;;;;16.82;100.00;100624.69;7391704;19;20017;-59
2023/02/02 09:06:06;;;;;;;0.57;0.30;;;;;;;16.50;100.00;100637.97;7392950;19;20010;-60
2023/02/02 09:08:32;;;;;;;0.30;0.10;;;;;;;17.03;100.00;100640.19;7389294;19;20353;-60
2023/02/02 09:11:04;;;;;;;0.43;0.20;;;;;;;15.99;100.00;100630.25;7395162;19;20019;-60
2023/02/02 09:13:30;;;;;;;0.00;0.00;;;;;;;16.26;100.00;100635.44;7389165;19;20022;-60
2023/02/02 09:16:01;;;;;;;0.15;0.15;;;;;;;17.19;100.00;100640.31;7388264;19;20019;-60
2023/02/02 09:18:28;;;;;;;0.90;0.20;;;;;;;16.10;100.00;100641.63;7387986;19;20014;-60
2023/02/02 09:20:58;;;;;;;0.52;0.20;;;;;;;21.30;79.38;100638.31;7392763;19;20082;-60
2023/02/02 09:23:25;;;;;;;3.60;0.32;;;;;;;23.04;71.50;100631.22;7388684;19;20010;-60
2023/02/02 09:25:51;;;;;;;0.10;0.10;;;;;;;23.19;62.78;100627.88;7391260;19;20026;-60
2023/02/02 09:28:17;;;;;;;1.10;0.20;;;;;;;20.12;70.72;100638.97;7389748;19;20011;-60
2023/02/02 09:30:44;;;;;;;0.10;0.00;;;;;;;17.82;92.17;100645.78;7393109;19;20487;-60
2023/02/02 09:33:10;;;;;;;0.68;0.17;;;;;;;17.08;97.24;100648.69;7389046;19;20019;-60
2023/02/02 09:35:36;;;;;;;0.30;0.30;;;;;;;16.38;100.00;100653.16;7389106;19;20123;-60
2023/02/02 09:38:02;;;;;;;0.03;0.03;;;;;;;16.10;100.00;100661.31;7389270;19;20040;-60
2023/02/02 09:40:33;;;;;;;0.80;0.32;;;;;;;16.43;100.00;100664.47;7392903;19;20018;-60
2023/02/02 09:43:14;;;;;;;0.10;0.10;;;;;;;16.70;100.00;100656.81;7390876;19;20603;-60
2023/02/02 09:45:46;;;;;;;1.05;0.57;;;;;;;15.94;100.00;100656.25;7396234;19;20352;-60
2023/02/02 09:48:27;;;;;;;0.10;0.10;;;;;;;16.23;100.00;100653.28;7395431;19;20014;-60
2023/02/02 09:50:59;;;;;;;0.10;0.10;;;;;;;16.51;100.00;100657.16;7399257;19;20042;-60
2023/02/02 09:53:46;;;;;;;1.23;0.57;;;;;;;17.19;100.00;100653.59;7396133;19;20025;-60
2023/02/02 09:56:30;;;;;;;0.50;0.10;;;;;;;17.82;100.00;100652.16;7396065;19;20018;-60
2023/02/02 09:58:59;;;;;;;2.92;0.25;;;;;;;19.18;92.58;100648.53;7398586;19;20031;-60
2023/02/02 10:01:30;;;;;;;0.10;0.00;;;;;;;18.01;94.18;100653.28;7397282;19;20030;-60
2023/02/02 10:04:00;;;;;;;0.15;0.15;;;;;;;17.93;98.50;100649.38;7394959;19;20015;-60
2023/02/02 10:06:33;;;;;;;0.20;0.20;;;;;;;18.36;92.81;100650.03;7394730;19;20014;-60
2023/02/02 10:09:28;;;;;;;0.00;0.00;;;;;;;15.68;100.00;100658.25;7394863;19;20025;-60
2023/02/02 10:12:26;;;;;;;1.50;0.57;;;;;;;16.26;100.00;100657.91;7394907;19;20013;-60
2023/02/02 10:14:58;;;;;;;1.42;0.20;;;;;;;17.91;100.00;100657.59;7391477;19;20368;-60
2023/02/02 10:17:24;;;;;;;0.10;0.03;;;;;;;17.94;100.00;100655.81;7394673;19;20775;-61
2023/02/02 10:19:57;;;;;;;0.30;0.22;;;;;;;19.84;91.76;100649.66;7395750;19;20014;-60
2023/02/02 10:22:28;;;;;;;2.38;0.32;;;;;;;19.17;88.58;100657.50;7397346;19;20031;-60
2023/02/02 10:24:57;;;;;;;0.35;0.32;;;;;;;19.99;85.71;100658.56;7396521;19;20006;-60
2023/02/02 10:27:38;;;;;;;1.52;0.65;;;;;;;19.23;89.41;100661.84;7392408;19;20027;-61
2023/02/02 10:30:27;;;;;;;;;;;;;;;19.16;86.28;100670.09;7395678;19;20015;-61
2023/02/02 10:33:08;;;;;;;0.38;0.15;;;;;;;15.90;100.00;100675.38;7393261;19;19921;-61
2023/02/02 10:35:44;;;;;;;;;;;;;;;15.35;100.00;100677.41;7397274;19;20022;-60
2023/02/02 10:38:39;;;;;;;1.55;0.20;;;;;;;16.85;100.00;100671.53;7393681;19;19911;-60
2023/02/02 10:41:23;;;;;;;0.70;0.50;;;;;;;15.85;100.00;100659.97;7391289;19;20019;-61
2023/02/02 10:44:25;;;;;;;0.17;0.15;;;;;;;16.30;100.00;100661.28;7393634;19;20014;-61
2023/02/02 10:46:54;;;;;;;2.50;0.38;;;;;;;16.28;100.00;100666.63;7391160;19;20011;-60
2023/02/02 10:49:20;;;;;;;0.10;0.10;;;;;;;15.97;100.00;100655.28;7395284;19;20443;-61
2023/02/02 10:52:08;;;;;;;0.63;0.30;;;;;;;17.09;100.00;100638.16;7394130;19;20025;-60
2023/02/02 10:55:00;;;;;;;0.28;0.20;;;;;;;16.05;100.00;100645.16;7395609;19;20087;-60
2023/02/02 10:57:46;;;;;;;0.30;0.20;;;;;;;16.59;100.00;100646.22;7396974;19;20010;-60
2023/02/02 11:00:18;;;;;;;1.15;0.38;;;;;;;17.74;100.00;100642.66;7395104;19;20011;-60
2023/02/02 11:02:49;;;;;;;0.10;0.00;;;;;;;21.78;83.89;100626.16;7392737;19;20017;-60
2023/02/02 11:08:19;;;;;;;0.52;0.10;;;;;;;18.67;95.41;100638.53;7393010;19;20015;-60
2023/02/02 11:10:50;;;;;;;2.00;0.47;;;;;;;16.37;100.00;100643.94;7396345;19;20019;-60
2023/02/02 11:13:35;;;;;;;0.20;0.20;;;;;;;17.88;100.00;100636.06;7392984;19;20010;-60
2023/02/02 11:16:14;;;;;;;0.10;0.10;;;;;;;16.68;100.00;100641.19;7393414;19;20006;-60
2023/02/02 11:18:44;;;;;;;0.73;0.30;;;;;;;16.45;100.00;100631.00;7396019;19;20034;-60
2023/02/02 11:21:26;;;;;;;1.08;0.55;;;;;;;17.37;100.00;100625.03;7396081;19;20023;-65
2023/02/02 11:24:13;;;;;;;1.38;0.20;;;;;;;18.77;95.51;100636.25;7392839;19;20345;-61
2023/02/02 11:27:05;;;;;;;1.63;0.40;;;;;;;19.15;96.43;100638.25;7400291;19;20379;-61
2023/02/02 11:29:40;;;;;;;0.10;0.10;;;;;;;16.11;100.00;100643.19;7398273;19;20011;-61
2023/02/02 11:32:34;;;;;;;4.05;0.90;;;;;;;15.38;100.00;100634.31;7393535;19;20024;-61
2023/02/02 11:35:03;;;;;;;0.90;0.52;;;;;;;16.15;100.00;100638.13;7393142;19;20011;-60
2023/02/02 11:37:34;;;;;;;0.20;0.10;;;;;;;17.25;100.00;100645.97;7392218;19;20021;-61
2023/02/02 11:40:42;;;;;;;2.40;0.82;;;;;;;17.52;100.00;100636.91;7394910;19;20038;-61
2023/02/02 11:43:32;;;;;;;0.68;0.15;;;;;;;19.20;93.80;100634.66;7389084;19;20007;-61
2023/02/02 11:46:22;;;;;;;0.10;0.10;;;;;;;20.65;89.85;100615.72;7388389;19;20007;-60